Time;durP1;ratioP1;P1;durP2;ratioP2;P2;SDS_P1;SDS_P2;PMS_P1;PMS_P2;Temp;Humidity;BMP_temperature;BMP_pressure;BME280_temperature;BME280_humidity;BME280_pressure;Samples;Min_cycle;Max_cycle;Signal;HPM_P1;HPM_P2
2022/09/09 00:01:36;;;;;;;425.65;59.90;;;;;;;19.75;69.50;100359.03;4946342;28;120080;-78
2022/09/09 00:04:25;;;;;;;436.97;59.30;;;;;;;19.78;69.38;100366.34;4930137;28;120921;-77
2022/09/09 00:07:03;;;;;;;439.20;59.83;;;;;;;19.76;69.33;100358.53;4906689;28;122931;-78
2022/09/09 00:09:37;;;;;;;460.70;61.92;;;;;;;19.77;69.10;100350.91;4939607;28;120500;-79
2022/09/09 00:12:14;;;;;;;464.08;63.60;;;;;;;19.75;69.22;100347.91;4922590;28;121162;-79
2022/09/09 00:15:05;;;;;;;495.38;65.57;;;;;;;19.71;69.39;100347.44;4939066;28;120443;-79
2022/09/09 00:17:47;;;;;;;458.90;64.40;;;;;;;19.74;69.53;100347.16;4939460;28;121717;-80
2022/09/09 00:20:13;;;;;;;467.50;66.13;;;;;;;19.72;69.31;100349.72;4945379;28;121475;-79
2022/09/09 00:22:47;;;;;;;469.63;66.27;;;;;;;19.70;69.68;100354.28;4939787;28;122810;-79
2022/09/09 00:25:28;;;;;;;490.40;67.50;;;;;;;19.69;69.37;100350.75;4923321;28;121239;-79
2022/09/09 00:27:54;;;;;;;456.15;66.68;;;;;;;19.69;69.49;100345.19;4922529;28;121769;-79
2022/09/09 00:30:26;;;;;;;444.30;67.25;;;;;;;19.76;69.61;100352.94;4925470;28;120331;-79
2022/09/09 00:32:59;;;;;;;437.20;70.05;;;;;;;19.72;69.39;100346.19;4942237;28;119894;-79
2022/09/09 00:35:33;;;;;;;443.05;67.78;;;;;;;19.73;69.53;100353.25;4909533;28;121518;-79
2022/09/09 00:38:12;;;;;;;493.25;70.22;;;;;;;19.72;69.82;100341.38;4910689;28;120108;-79
2022/09/09 00:40:50;;;;;;;431.20;68.87;;;;;;;19.74;69.72;100346.41;4896991;28;120726;-79
2022/09/09 00:43:25;;;;;;;481.27;69.40;;;;;;;19.76;69.29;100343.84;4935854;28;121908;-78
2022/09/09 00:46:06;;;;;;;484.05;71.22;;;;;;;19.82;69.50;100348.06;4926247;28;122043;-79
2022/09/09 00:49:00;;;;;;;455.87;71.30;;;;;;;19.83;69.38;100346.03;4917304;28;121564;-78
2022/09/09 00:51:56;;;;;;;426.45;69.93;;;;;;;19.81;69.29;100348.59;4930488;28;119838;-78
2022/09/09 00:54:27;;;;;;;479.02;72.47;;;;;;;19.78;69.14;100349.66;4940554;28;120804;-78
2022/09/09 00:57:00;;;;;;;441.70;69.97;;;;;;;19.82;69.32;100355.66;4949280;28;120535;-79
2022/09/09 00:59:43;;;;;;;465.02;70.03;;;;;;;19.81;69.15;100345.81;4925440;28;120964;-79
2022/09/09 01:02:22;;;;;;;445.17;70.63;;;;;;;19.84;69.22;100345.50;4941178;28;120648;-79
2022/09/09 01:04:47;;;;;;;440.67;70.63;;;;;;;19.85;69.21;100341.47;4941943;28;122965;-79
2022/09/09 01:07:18;;;;;;;452.73;70.00;;;;;;;19.87;69.32;100347.28;4897093;28;121547;-79
2022/09/09 01:09:58;;;;;;;446.88;74.75;;;;;;;19.87;69.15;100336.16;4944875;28;120278;-79
2022/09/09 01:12:41;;;;;;;440.92;70.47;;;;;;;19.86;69.07;100342.22;4919950;28;121596;-79
2022/09/09 01:15:11;;;;;;;418.27;70.78;;;;;;;19.86;69.22;100345.00;4911374;28;121965;-79
2022/09/09 01:18:18;;;;;;;470.13;72.32;;;;;;;19.87;69.02;100349.28;4925801;28;123027;-79
2022/09/09 01:21:07;;;;;;;525.55;72.97;;;;;;;19.88;69.10;100351.56;4896796;28;120796;-79
2022/09/09 01:23:56;;;;;;;486.80;71.18;;;;;;;19.86;69.01;100348.53;4923082;28;120749;-78
2022/09/09 01:27:00;;;;;;;440.85;71.55;;;;;;;19.86;69.23;100345.75;4911681;28;121949;-79
2022/09/09 01:29:26;;;;;;;500.83;71.43;;;;;;;19.83;69.22;100338.44;4912334;28;120212;-79
2022/09/09 01:31:55;;;;;;;486.58;69.43;;;;;;;19.87;69.31;100338.94;4939787;28;121997;-79
2022/09/09 01:34:23;;;;;;;515.97;69.43;;;;;;;19.86;69.17;100333.88;4930531;28;121774;-79
2022/09/09 01:37:09;;;;;;;484.17;67.00;;;;;;;19.85;69.27;100335.88;4936481;28;120267;-79
2022/09/09 01:39:38;;;;;;;520.33;68.03;;;;;;;19.86;69.37;100339.44;4935559;28;121727;-79
2022/09/09 01:42:10;;;;;;;549.13;70.57;;;;;;;19.84;69.20;100344.75;4912618;28;120105;-79
2022/09/09 01:44:37;;;;;;;523.77;67.17;;;;;;;19.83;69.12;100332.13;4894878;28;123117;-79
2022/09/09 01:47:04;;;;;;;536.53;69.95;;;;;;;19.86;69.27;100345.75;4928054;28;120303;-79
2022/09/09 01:49:32;;;;;;;549.58;71.10;;;;;;;19.83;69.20;100340.47;4926232;28;121707;-79
2022/09/09 01:51:59;;;;;;;579.35;73.38;;;;;;;19.85;69.27;100335.13;4940758;28;120220;-78
2022/09/09 01:54:32;;;;;;;545.27;73.67;;;;;;;19.86;69.30;100342.22;4909566;28;121495;-78
2022/09/09 01:57:23;;;;;;;539.05;74.22;;;;;;;19.90;69.35;100343.44;4949760;28;119925;-78
2022/09/09 01:59:59;;;;;;;557.35;73.45;;;;;;;19.88;69.40;100334.13;4919271;28;122031;-77
2022/09/09 02:02:50;;;;;;;549.78;74.05;;;;;;;19.95;69.53;100347.44;4947185;28;121224;-77
2022/09/09 02:05:26;;;;;;;545.33;72.17;;;;;;;19.97;69.41;100344.88;4958340;28;120455;-77
2022/09/09 02:08:03;;;;;;;562.58;74.00;;;;;;;19.97;69.20;100341.34;4933717;28;120712;-77
2022/09/09 02:10:50;;;;;;;546.93;70.07;;;;;;;19.96;69.04;100340.59;4928145;28;120389;-77
2022/09/09 02:13:29;;;;;;;559.60;74.30;;;;;;;19.99;69.05;100345.09;4921670;28;120703;-79
2022/09/09 02:16:12;;;;;;;543.97;69.80;;;;;;;19.98;68.92;100343.59;4927619;28;124330;-79
2022/09/09 02:19:23;;;;;;;581.33;70.40;;;;;;;20.01;69.05;100348.13;4908643;28;120504;-78
2022/09/09 02:22:12;;;;;;;625.08;70.90;;;;;;;19.99;69.11;100338.78;4955325;28;120087;-78
2022/09/09 02:24:39;;;;;;;614.20;69.60;;;;;;;19.97;69.08;100336.53;4928076;28;120074;-78
2022/09/09 02:27:21;;;;;;;627.23;68.43;;;;;;;19.93;69.28;100330.50;4929039;28;120962;-81
2022/09/09 02:29:56;;;;;;;656.20;68.95;;;;;;;19.98;69.36;100335.25;4926907;28;120535;-79
2022/09/09 02:32:35;;;;;;;620.67;70.63;;;;;;;19.96;69.32;100335.03;4931061;28;120282;-79
2022/09/09 02:35:10;;;;;;;611.38;70.22;;;;;;;19.97;69.53;100342.09;4912408;28;122692;-79
2022/09/09 02:37:41;;;;;;;674.88;72.18;;;;;;;19.96;69.33;100335.03;4912194;28;121601;-78
2022/09/09 02:40:10;;;;;;;634.40;74.07;;;;;;;19.97;69.42;100335.78;4924440;28;120291;-79
2022/09/09 02:42:40;;;;;;;671.07;73.70;;;;;;;19.99;69.43;100331.19;4931016;28;120586;-79
2022/09/09 02:45:07;;;;;;;678.08;75.18;;;;;;;19.98;69.59;100318.56;4915303;28;123244;-78
2022/09/09 02:47:44;;;;;;;694.03;75.10;;;;;;;20.04;69.43;100332.41;4924920;28;122109;-78
2022/09/09 02:50:14;;;;;;;688.50;76.57;;;;;;;20.05;69.46;100325.56;4926841;28;121300;-78
2022/09/09 02:52:53;;;;;;;725.10;77.75;;;;;;;20.08;69.38;100330.06;4926577;28;120040;-78
2022/09/09 02:55:44;;;;;;;715.58;76.55;;;;;;;20.09;69.55;100329.53;4915367;28;120482;-78
2022/09/09 02:58:16;;;;;;;700.95;77.85;;;;;;;20.11;69.46;100329.78;4928540;28;123294;-78
2022/09/09 03:00:48;;;;;;;698.42;75.45;;;;;;;20.13;68.98;100335.59;4926715;28;120394;-78
2022/09/09 03:03:19;;;;;;;736.33;79.70;;;;;;;20.14;69.21;100320.38;4909087;28;123320;-78
2022/09/09 03:05:46;;;;;;;686.77;78.93;;;;;;;20.13;69.48;100323.69;4901171;28;121152;-78
2022/09/09 03:08:12;;;;;;;709.87;79.17;;;;;;;20.15;69.21;100324.69;4930534;28;120776;-78
2022/09/09 03:10:39;;;;;;;668.25;78.07;;;;;;;20.14;69.48;100323.16;4910340;28;123313;-78
2022/09/09 03:13:05;;;;;;;671.72;77.28;;;;;;;20.17;69.48;100332.50;4944697;28;119940;-78
2022/09/09 03:15:34;;;;;;;718.17;79.35;;;;;;;20.15;69.40;100319.09;4911372;28;120567;-78
2022/09/09 03:18:02;;;;;;;653.05;79.70;;;;;;;20.12;69.20;100317.38;4945251;28;120253;-78
2022/09/09 03:20:49;;;;;;;693.75;80.68;;;;;;;20.15;69.18;100318.34;4892869;28;120002;-78
2022/09/09 03:23:15;;;;;;;681.67;80.10;;;;;;;20.20;69.17;100320.31;4911811;28;123107;-78
2022/09/09 03:25:48;;;;;;;713.00;81.30;;;;;;;20.20;69.38;100331.44;4910527;28;122415;-78
2022/09/09 03:28:15;;;;;;;678.80;75.28;;;;;;;20.01;69.51;100320.28;4929525;28;120095;-79
2022/09/09 03:30:43;;;;;;;644.83;73.47;;;;;;;19.92;69.51;100329.00;4946319;28;121741;-78
2022/09/09 03:33:09;;;;;;;677.97;82.78;;;;;;;19.80;69.78;100327.63;4924885;28;120691;-78
2022/09/09 03:35:35;;;;;;;646.10;84.10;;;;;;;19.69;70.23;100322.19;4925705;28;122081;-78
2022/09/09 03:38:01;;;;;;;677.97;88.55;;;;;;;19.60;70.36;100324.00;4933306;28;120047;-77
2022/09/09 03:40:30;;;;;;;616.22;88.88;;;;;;;19.53;70.77;100326.59;4915763;28;120240;-78
2022/09/09 03:42:56;;;;;;;574.70;86.50;;;;;;;19.45;71.07;100326.44;4913037;28;122387;-78
2022/09/09 03:45:24;;;;;;;644.88;88.30;;;;;;;19.42;71.48;100333.03;4927722;28;124119;-78
2022/09/09 03:47:50;;;;;;;585.03;91.53;;;;;;;19.37;71.54;100325.47;4910402;28;120380;-78
2022/09/09 03:50:16;;;;;;;717.33;96.57;;;;;;;19.30;71.98;100332.38;4912452;28;120148;-78
2022/09/09 03:52:45;;;;;;;621.47;94.72;;;;;;;19.27;72.20;100335.44;4935501;28;123743;-78
2022/09/09 03:55:48;;;;;;;695.25;93.03;;;;;;;19.23;72.46;100332.94;4920361;28;120735;-78
2022/09/09 03:58:15;;;;;;;698.95;94.05;;;;;;;19.17;72.57;100326.69;4929682;28;122035;-78
2022/09/09 04:00:42;;;;;;;614.15;91.13;;;;;;;19.23;72.95;100332.19;4909989;28;121116;-78
2022/09/09 04:03:11;;;;;;;649.67;92.05;;;;;;;19.24;73.20;100336.50;4939970;28;119998;-78
2022/09/09 04:05:40;;;;;;;625.92;90.03;;;;;;;19.24;73.10;100339.28;4920545;28;121571;-79
2022/09/09 04:08:11;;;;;;;701.58;96.10;;;;;;;19.20;73.23;100330.47;4923378;28;121026;-78
2022/09/09 04:10:37;;;;;;;671.13;89.97;;;;;;;19.23;73.13;100332.19;4907831;28;122181;-78
2022/09/09 04:13:04;;;;;;;671.35;93.57;;;;;;;19.25;73.38;100335.22;4905883;28;121250;-79
2022/09/09 04:15:31;;;;;;;692.33;96.55;;;;;;;19.20;73.39;100330.47;4932077;28;121125;-80
2022/09/09 04:17:57;;;;;;;635.50;95.18;;;;;;;19.22;73.29;100337.00;4912054;28;123502;-79
2022/09/09 04:20:26;;;;;;;637.17;97.18;;;;;;;19.18;73.58;100336.53;4886081;28;119938;-79
2022/09/09 04:22:51;;;;;;;646.20;95.00;;;;;;;19.18;73.75;100336.53;4902447;28;123719;-79
2022/09/09 04:25:17;;;;;;;685.28;96.05;;;;;;;19.20;73.83;100345.13;4909395;28;120811;-79
2022/09/09 04:27:44;;;;;;;647.15;91.20;;;;;;;19.21;73.81;100345.88;4912098;28;121689;-79
2022/09/09 04:30:10;;;;;;;689.70;91.35;;;;;;;19.21;73.74;100343.09;4935415;28;121915;-79
2022/09/09 04:32:59;;;;;;;678.70;97.30;;;;;;;19.18;73.57;100341.34;4931630;28;120213;-79
2022/09/09 04:35:26;;;;;;;660.72;94.95;;;;;;;19.18;73.77;100349.69;4947202;28;119849;-79
2022/09/09 04:37:53;;;;;;;688.65;90.78;;;;;;;19.11;73.71;100341.88;4914646;28;123307;-79
2022/09/09 04:40:18;;;;;;;677.70;92.00;;;;;;;19.11;74.03;100348.22;4930754;28;120050;-79
2022/09/09 04:42:47;;;;;;;672.10;91.18;;;;;;;19.15;73.93;100353.47;4931337;28;122621;-79
2022/09/09 04:45:13;;;;;;;682.78;88.22;;;;;;;19.09;73.92;100344.44;4935163;28;120221;-79
2022/09/09 04:47:40;;;;;;;657.22;87.57;;;;;;;19.15;73.85;100350.69;4915870;28;120267;-79
2022/09/09 04:50:07;;;;;;;706.45;88.30;;;;;;;19.20;74.03;100363.81;4949071;28;121063;-79
2022/09/09 04:52:37;;;;;;;580.70;85.07;;;;;;;19.16;73.91;100357.78;4947491;28;120242;-79
2022/09/09 04:55:04;;;;;;;630.70;86.07;;;;;;;19.18;73.78;100358.03;4957250;28;120664;-79
2022/09/09 04:57:32;;;;;;;676.75;86.25;;;;;;;19.16;74.02;100355.00;4937619;28;120614;-79
2022/09/09 04:59:59;;;;;;;674.40;83.65;;;;;;;19.14;74.09;100360.31;4931320;28;120378;-78
2022/09/09 05:02:26;;;;;;;661.00;87.18;;;;;;;19.15;73.85;100361.81;4915466;28;122956;-79
2022/09/09 05:04:52;;;;;;;606.33;82.10;;;;;;;19.17;73.78;100367.66;4929829;28;123150;-78
2022/09/09 05:07:18;;;;;;;632.90;88.95;;;;;;;19.15;73.68;100368.13;4914720;28;120097;-79
2022/09/09 05:09:45;;;;;;;665.50;86.55;;;;;;;19.09;73.83;100366.69;4915376;28;119966;-78
2022/09/09 05:12:11;;;;;;;670.65;87.03;;;;;;;19.09;73.84;100358.34;4931087;28;120182;-79
2022/09/09 05:14:42;;;;;;;679.67;90.70;;;;;;;19.10;73.48;100370.97;4930750;28;120119;-79
2022/09/09 05:17:08;;;;;;;639.50;87.65;;;;;;;19.02;73.51;100360.41;4915370;28;122082;-79
2022/09/09 05:19:36;;;;;;;636.53;85.63;;;;;;;18.95;73.52;100360.22;4934421;28;123186;-79
2022/09/09 05:22:05;;;;;;;586.30;81.35;;;;;;;19.00;73.63;100365.72;4913957;28;120730;-79
2022/09/09 05:24:38;;;;;;;687.33;88.07;;;;;;;18.96;73.54;100368.03;4931098;28;119975;-79
2022/09/09 05:27:06;;;;;;;618.05;82.88;;;;;;;18.94;73.61;100358.72;4931214;28;120095;-78
2022/09/09 05:29:35;;;;;;;608.65;82.22;;;;;;;18.91;73.65;100357.69;4915501;28;121938;-78
2022/09/09 05:32:04;;;;;;;584.92;78.60;;;;;;;18.90;73.61;100372.88;4933681;28;122366;-79
2022/09/09 05:34:30;;;;;;;600.33;79.07;;;;;;;18.88;73.78;100372.63;4930368;28;122909;-79
2022/09/09 05:36:55;;;;;;;617.70;81.22;;;;;;;18.85;73.71;100379.22;4928583;28;120662;-79
2022/09/09 05:39:22;;;;;;;649.47;83.70;;;;;;;18.83;73.80;100370.66;4930475;28;120048;-79
2022/09/09 05:42:03;;;;;;;530.45;78.28;;;;;;;18.83;73.71;100378.97;4915064;28;119995;-79
2022/09/09 05:44:33;;;;;;;555.25;79.45;;;;;;;18.83;73.52;100381.75;4892013;28;121557;-79
2022/09/09 05:47:00;;;;;;;547.65;75.50;;;;;;;18.77;73.73;100389.38;4892922;28;120498;-79
2022/09/09 05:49:25;;;;;;;522.80;75.18;;;;;;;18.76;73.72;100389.91;4906590;28;120341;-79
2022/09/09 05:51:52;;;;;;;495.00;72.05;;;;;;;18.79;73.72;100395.19;4908996;28;120364;-79
2022/09/09 05:54:20;;;;;;;538.63;76.50;;;;;;;18.72;73.79;100392.94;4923366;28;120134;-79
2022/09/09 05:56:52;;;;;;;548.75;74.72;;;;;;;18.74;73.59;100403.56;4878886;28;122028;-80
2022/09/09 05:59:18;;;;;;;586.63;79.88;;;;;;;18.71;73.98;100408.13;4908660;28;120759;-80
2022/09/09 06:01:45;;;;;;;674.97;84.57;;;;;;;18.73;73.83;100408.34;4924987;28;120452;-80
2022/09/09 06:04:20;;;;;;;545.08;78.75;;;;;;;18.69;73.85;100405.06;4912662;28;120644;-80
2022/09/09 06:06:46;;;;;;;560.90;76.20;;;;;;;18.73;74.25;100416.69;4907715;28;120306;-80
2022/09/09 06:09:15;;;;;;;568.20;76.90;;;;;;;18.72;73.88;100412.41;4914509;28;122511;-80
2022/09/09 06:11:42;;;;;;;594.50;79.80;;;;;;;18.75;73.96;100411.38;4913254;28;122966;-80
2022/09/09 06:14:09;;;;;;;596.42;83.95;;;;;;;18.81;74.35;100414.88;4913842;28;121849;-80
2022/09/09 06:16:37;;;;;;;608.38;83.93;;;;;;;18.81;74.47;100414.88;4917310;28;122096;-81
2022/09/09 06:19:05;;;;;;;591.65;84.35;;;;;;;18.81;74.19;100419.66;4929559;28;120986;-81
2022/09/09 06:21:36;;;;;;;625.72;84.88;;;;;;;18.81;74.26;100420.44;4929695;28;120165;-80
2022/09/09 06:24:08;;;;;;;660.20;85.45;;;;;;;18.83;74.04;100426.22;4963214;28;119919;-81
2022/09/09 06:26:40;;;;;;;539.67;81.70;;;;;;;18.84;74.01;100432.53;4926363;28;120042;-80
2022/09/09 06:29:08;;;;;;;562.05;78.70;;;;;;;18.82;73.86;100426.72;4892305;28;123472;-80
2022/09/09 06:31:36;;;;;;;599.42;82.22;;;;;;;18.82;73.84;100427.50;4921011;28;122886;-80
2022/09/09 06:34:22;;;;;;;535.20;78.60;;;;;;;18.79;73.69;100422.97;4922764;28;120183;-80
2022/09/09 06:36:52;;;;;;;559.45;78.15;;;;;;;18.81;74.17;100417.66;4891558;28;122734;-80
2022/09/09 06:39:17;;;;;;;596.83;82.68;;;;;;;18.85;74.00;100420.16;4892033;28;123158;-81
2022/09/09 06:41:44;;;;;;;562.22;80.32;;;;;;;18.83;74.10;100417.88;4908081;28;120316;-81
2022/09/09 06:44:31;;;;;;;558.35;83.93;;;;;;;18.86;73.84;100427.97;4924678;28;120269;-81
2022/09/09 06:46:57;;;;;;;546.03;81.05;;;;;;;18.86;73.90;100433.53;4894499;28;121753;-81
2022/09/09 06:49:23;;;;;;;517.50;81.30;;;;;;;18.91;73.94;100435.50;4893213;28;122280;-80
2022/09/09 06:51:49;;;;;;;520.78;80.78;;;;;;;18.89;73.74;100435.28;4919360;28;120111;-80
2022/09/09 06:54:16;;;;;;;483.25;78.80;;;;;;;18.88;73.97;100427.44;4891899;28;120499;-79
2022/09/09 06:56:44;;;;;;;603.45;86.93;;;;;;;18.95;73.92;100430.47;4905445;28;120835;-79
2022/09/09 06:59:17;;;;;;;517.20;86.30;;;;;;;19.00;73.67;100437.25;4906939;28;121326;-79
2022/09/09 07:01:44;;;;;;;569.85;86.18;;;;;;;19.01;73.34;100442.28;4923562;28;120116;-79
2022/09/09 07:04:13;;;;;;;534.10;87.68;;;;;;;19.01;73.60;100442.28;4898841;28;122072;-79
2022/09/09 07:06:43;;;;;;;565.55;87.88;;;;;;;18.97;73.70;100430.69;4902255;28;123037;-79
2022/09/09 07:09:13;;;;;;;587.00;88.70;;;;;;;19.06;74.26;100446.28;4893317;28;120602;-79
2022/09/09 07:11:51;;;;;;;531.47;85.55;;;;;;;19.09;73.61;100447.28;4878563;28;120592;-79
2022/09/09 07:14:18;;;;;;;505.05;86.03;;;;;;;19.07;73.42;100447.81;4926050;28;120893;-79
2022/09/09 07:16:47;;;;;;;551.45;92.88;;;;;;;19.08;73.64;100443.00;4894967;28;122140;-79
2022/09/09 07:19:15;;;;;;;542.60;88.30;;;;;;;19.18;73.56;100463.69;4894238;28;123241;-79
2022/09/09 07:21:44;;;;;;;566.20;90.80;;;;;;;19.16;73.60;100446.72;4891365;28;120276;-79
2022/09/09 07:24:13;;;;;;;492.15;90.20;;;;;;;19.20;73.58;100461.13;4911980;28;122950;-77
2022/09/09 07:26:41;;;;;;;540.50;89.88;;;;;;;19.15;73.16;100462.66;4936974;28;120520;-78
2022/09/09 07:29:08;;;;;;;564.70;90.45;;;;;;;19.16;73.35;100449.50;4925442;28;120900;-78
2022/09/09 07:31:36;;;;;;;571.08;91.28;;;;;;;19.19;73.45;100462.41;4912121;28;122859;-78
2022/09/09 07:34:05;;;;;;;539.67;90.05;;;;;;;19.20;73.60;100461.13;4920161;28;121112;-78
2022/09/09 07:36:37;;;;;;;568.78;103.03;;;;;;;19.29;73.98;100442.09;4902429;28;122443;-78
2022/09/09 07:39:13;;;;;;;579.37;98.80;;;;;;;19.50;73.62;100456.34;4911364;28;122473;-80
2022/09/09 07:41:44;;;;;;;552.25;98.97;;;;;;;19.71;73.31;100476.19;4921471;28;121221;-80
2022/09/09 07:44:14;;;;;;;503.15;95.00;;;;;;;19.77;72.59;100468.56;4937913;28;120289;-80
2022/09/09 07:46:41;;;;;;;529.28;101.22;;;;;;;19.88;72.37;100473.28;4905010;28;121553;-80
2022/09/09 07:49:09;;;;;;;541.78;102.90;;;;;;;19.94;71.95;100482.31;4934667;28;120493;-80
2022/09/09 07:51:38;;;;;;;522.22;103.72;;;;;;;19.95;71.92;100477.50;4920443;28;123526;-80
2022/09/09 07:54:10;;;;;;;566.72;101.03;;;;;;;19.85;71.22;100488.97;4917901;28;123340;-78
2022/09/09 07:56:40;;;;;;;542.15;97.75;;;;;;;19.75;71.40;100487.03;4908359;28;123442;-78
2022/09/09 07:59:06;;;;;;;486.40;97.80;;;;;;;19.70;71.55;100480.25;4907714;28;120159;-79
2022/09/09 08:01:55;;;;;;;524.25;94.63;;;;;;;19.67;71.87;100469.41;4928340;28;121784;-79
2022/09/09 08:04:25;;;;;;;517.92;92.90;;;;;;;19.64;71.81;100482.34;4928353;28;122848;-78
2022/09/09 08:06:58;;;;;;;532.17;95.97;;;;;;;19.65;72.46;100474.75;4925798;28;121464;-79
2022/09/09 08:09:28;;;;;;;527.55;96.38;;;;;;;19.67;72.15;100474.97;4931188;28;120846;-78
2022/09/09 08:11:58;;;;;;;531.08;100.60;;;;;;;19.71;72.66;100475.44;4948138;28;120595;-78
2022/09/09 08:14:24;;;;;;;522.25;96.28;;;;;;;19.76;72.91;100480.22;4891417;28;124887;-77
2022/09/09 08:16:50;;;;;;;544.10;99.18;;;;;;;19.74;72.63;100474.41;4925435;28;119978;-78
2022/09/09 08:19:19;;;;;;;530.25;96.65;;;;;;;19.79;72.92;100479.16;4922973;28;123658;-78
2022/09/09 08:21:46;;;;;;;;;;;;;;;19.85;72.24;100474.28;4910719;28;121081;-77
2022/09/09 08:24:19;;;;;;;410.27;91.15;;;;;;;19.85;72.07;100479.88;4914184;28;122017;-78
2022/09/09 08:26:49;;;;;;;457.25;90.32;;;;;;;19.80;71.78;100483.47;4909082;28;122981;-78
2022/09/09 08:29:16;;;;;;;458.17;89.63;;;;;;;19.82;72.06;100492.03;4922721;28;120506;-78
2022/09/09 08:31:46;;;;;;;474.90;91.00;;;;;;;19.80;72.08;100489.03;4907260;28;120658;-78
2022/09/09 08:34:13;;;;;;;464.23;89.07;;;;;;;19.78;72.16;100483.97;4937106;28;121195;-78
2022/09/09 08:36:42;;;;;;;469.17;90.32;;;;;;;19.79;72.15;100498.66;4911682;28;120354;-78
2022/09/09 08:39:10;;;;;;;473.27;95.22;;;;;;;19.80;72.41;100505.72;4893841;28;123149;-78
2022/09/09 08:41:58;;;;;;;500.70;94.18;;;;;;;19.79;72.36;100498.66;4936637;28;120163;-78
2022/09/09 08:44:33;;;;;;;498.67;94.40;;;;;;;19.77;72.41;100512.31;4944100;28;120118;-78
2022/09/09 08:47:21;;;;;;;478.80;93.00;;;;;;;19.73;72.64;100501.47;4921265;28;122946;-78
2022/09/09 08:49:53;;;;;;;493.38;97.30;;;;;;;19.72;72.58;100513.13;4927768;28;120922;-78
2022/09/09 08:52:23;;;;;;;455.48;92.07;;;;;;;19.71;72.77;100515.16;4906802;28;122792;-78
2022/09/09 08:54:50;;;;;;;496.83;96.32;;;;;;;19.72;73.07;100513.88;4920225;28;123152;-78
2022/09/09 08:57:27;;;;;;;432.27;92.03;;;;;;;19.75;72.94;100506.53;4896188;28;120362;-78
2022/09/09 08:59:55;;;;;;;485.23;91.35;;;;;;;19.80;73.17;100500.16;4911004;28;122277;-77
2022/09/09 09:02:32;;;;;;;558.17;99.85;;;;;;;19.92;73.45;100515.50;4927539;28;120513;-78
2022/09/09 09:05:24;;;;;;;435.90;87.97;;;;;;;19.99;73.26;100517.72;4910580;28;122871;-78
2022/09/09 09:08:26;;;;;;;;;;;;;;;20.04;72.66;100514.13;4941674;28;122133;-78
2022/09/09 09:10:56;;;;;;;480.65;91.78;;;;;;;20.14;73.24;100514.53;4833562;28;120055;-78
2022/09/09 09:13:38;;;;;;;501.98;106.07;;;;;;;20.37;74.32;100517.84;4912220;28;121249;-77
2022/09/09 09:16:16;;;;;;;462.73;102.22;;;;;;;20.56;73.44;100518.66;4924307;28;120936;-78
2022/09/09 09:18:42;;;;;;;448.15;99.65;;;;;;;20.68;73.00;100522.84;4937762;28;121248;-78
2022/09/09 09:21:35;;;;;;;424.08;100.70;;;;;;;20.78;72.06;100515.63;4922170;28;121059;-78
2022/09/09 09:24:01;;;;;;;458.97;103.80;;;;;;;20.94;71.77;100525.06;4929764;28;121056;-78
2022/09/09 09:26:34;;;;;;;445.17;100.07;;;;;;;21.04;72.08;100525.44;4910110;28;123931;-78
2022/09/09 09:29:10;;;;;;;429.25;100.55;;;;;;;21.07;70.52;100524.41;4904621;28;121971;-78
2022/09/09 09:31:35;;;;;;;424.25;101.63;;;;;;;21.03;70.22;100519.09;4907584;28;121388;-78
2022/09/09 09:34:02;;;;;;;436.23;102.97;;;;;;;21.00;70.81;100511.03;4908892;28;123001;-78
2022/09/09 09:36:44;;;;;;;373.20;95.13;;;;;;;21.12;70.76;100523.56;4904557;28;122796;-78
2022/09/09 09:39:23;;;;;;;414.98;97.55;;;;;;;21.26;71.15;100521.63;4908286;28;120569;-78
2022/09/09 09:41:50;;;;;;;359.55;93.63;;;;;;;21.38;71.42;100525.78;4905024;28;123545;-77
2022/09/09 09:44:43;;;;;;;398.88;96.05;;;;;;;21.48;70.36;100520.53;4920685;28;121431;-78
2022/09/09 09:47:22;;;;;;;420.83;95.25;;;;;;;21.59;70.68;100517.59;4941274;28;120638;-78
2022/09/09 09:50:17;;;;;;;367.98;92.93;;;;;;;21.68;70.91;100522.78;4923105;28;120866;-78
2022/09/09 09:52:55;;;;;;;364.43;91.07;;;;;;;21.77;70.67;100516.81;4921028;28;121590;-78
2022/09/09 09:55:22;;;;;;;302.60;79.65;;;;;;;21.76;70.69;100518.81;4901503;28;124219;-78
2022/09/09 09:57:48;;;;;;;308.67;78.47;;;;;;;21.73;70.27;100519.88;4908122;28;122210;-78
2022/09/09 10:00:18;;;;;;;317.50;77.65;;;;;;;21.83;70.12;100525.84;4908488;28;121721;-78
2022/09/09 10:02:52;;;;;;;294.52;79.50;;;;;;;21.86;70.40;100521.22;4905855;28;123355;-79
2022/09/09 10:05:28;;;;;;;288.60;79.45;;;;;;;21.99;69.82;100522.00;4886578;28;121985;-79
2022/09/09 10:08:09;;;;;;;290.95;79.95;;;;;;;22.05;69.34;100525.50;4887693;28;121545;-77
2022/09/09 10:11:09;;;;;;;263.97;78.43;;;;;;;22.08;69.47;100525.72;4935798;28;122146;-78
2022/09/09 10:14:12;;;;;;;309.70;83.13;;;;;;;22.04;69.59;100515.59;4906524;28;121870;-77
2022/09/09 10:17:08;;;;;;;290.70;81.28;;;;;;;22.12;69.44;100534.53;4920210;28;123055;-78
2022/09/09 10:19:36;;;;;;;262.13;75.83;;;;;;;22.13;69.10;100528.41;4906898;28;122735;-78
2022/09/09 10:22:30;;;;;;;246.47;75.87;;;;;;;22.18;69.92;100530.34;4920817;28;121913;-78
2022/09/09 10:25:19;;;;;;;265.50;77.18;;;;;;;22.32;71.07;100534.66;4932545;28;121745;-78
2022/09/09 10:28:40;;;;;;;262.00;76.53;;;;;;;22.49;70.90;100542.75;4934490;28;122465;-78
2022/09/09 10:31:30;;;;;;;240.03;73.47;;;;;;;22.61;69.63;100541.22;4934128;28;123391;-77
2022/09/09 10:34:35;;;;;;;234.90;73.13;;;;;;;22.64;69.12;100534.56;4906101;28;124498;-78
2022/09/09 10:37:11;;;;;;;249.88;73.65;;;;;;;22.61;68.24;100535.63;4925485;28;123872;-78
2022/09/09 10:39:41;;;;;;;236.85;73.55;;;;;;;22.58;67.92;100533.91;4922569;28;121829;-79
2022/09/09 10:42:12;;;;;;;232.95;73.28;;;;;;;22.54;68.11;100535.53;4898199;28;124328;-78
2022/09/09 10:44:53;;;;;;;253.13;77.27;;;;;;;22.49;68.20;100542.75;4915491;28;123117;-78
2022/09/09 10:47:32;;;;;;;255.93;77.87;;;;;;;22.44;68.94;100531.66;4918880;28;122490;-78
2022/09/09 10:50:17;;;;;;;247.98;78.97;;;;;;;22.50;68.89;100546.28;4918314;28;123696;-79
2022/09/09 10:53:03;;;;;;;238.18;79.05;;;;;;;22.53;69.38;100542.41;4920001;28;122158;-78
2022/09/09 10:55:40;;;;;;;242.70;77.82;;;;;;;22.61;70.10;100541.22;4903098;28;123136;-78
2022/09/09 10:58:14;;;;;;;242.73;77.63;;;;;;;22.72;69.67;100537.47;4922898;28;125251;-78
2022/09/09 11:00:45;;;;;;;242.70;81.10;;;;;;;22.83;69.63;100542.09;4915345;28;122277;-78
2022/09/09 11:03:31;;;;;;;229.52;83.05;;;;;;;22.89;69.59;100539.94;4932531;28;123411;-78
2022/09/09 11:06:00;;;;;;;211.20;78.40;;;;;;;23.03;69.01;100555.41;4919205;28;122239;-78
2022/09/09 11:08:29;;;;;;;217.65;77.60;;;;;;;23.18;69.68;100544.38;4936133;28;122178;-78
2022/09/09 11:11:42;;;;;;;206.20;77.20;;;;;;;23.51;68.61;100553.34;4862992;28;122716;-78
2022/09/09 11:14:08;;;;;;;163.18;70.72;;;;;;;23.68;67.23;100547.41;4823606;28;122978;-78
2022/09/09 11:16:41;;;;;;;162.80;69.93;;;;;;;23.74;66.43;100548.75;4856849;28;126573;-78
2022/09/09 11:19:28;;;;;;;130.50;60.30;;;;;;;23.76;66.16;100548.22;4840208;28;125573;-78
2022/09/09 11:21:57;;;;;;;125.40;61.45;;;;;;;23.68;64.97;100545.34;4859008;28;123033;-78
2022/09/09 11:24:40;;;;;;;175.65;70.60;;;;;;;23.64;66.03;100544.16;4839334;28;123489;-77